MV Akson Sara — H3GG — position and weather

sailwx.info

Track history (hours):
 
Tides and Currents Weather Stations Pressure Air Temp Water Temp Dewpoint Dewpoint Depression Visibility Wind Speed Wind Dir Waves Ship Positions

MV Akson Sara

Last reported at 2018-Jan-11 20:16 UTC. Time now 2018-Jan-19 03:37 UTC.
Position N 57°38' E 009°14'.

Length 190 m; draft 10.5 m.

Type: Cargo ship. MMSI: 356182000.

Date/timePositionNaut miles runAvg speedWind from/ knotsBaromVisibWave heightAir tempDewpointWater temp
2018-Jan-11 20:16N 57°38' E 009°14'312.2
2018-Jan-11 20:00N 57°39' E 009°19'1012.6
2018-Jan-11 19:12N 57°42' E 009°37'2113.1
2018-Jan-11 17:36N 57°46' E 010°16'213.8
2018-Jan-11 17:28N 57°46' E 010°19'613.7
2018-Jan-11 17:00N 57°48' E 010°31'613.1
2018-Jan-11 16:30N 57°48' E 010°43'5 9.4
2018-Jan-11 16:00N 57°43' E 010°43'3 5.3
2018-Jan-11 15:30N 57°42' E 010°38'0 0.1
2018-Jan-11 15:00N 57°42' E 010°38'0 0.0
2018-Jan-11 14:27N 57°42' E 010°38'0 0.0
2018-Jan-11 13:54N 57°42' E 010°38'0 0.0
2018-Jan-11 13:27N 57°42' E 010°38'0 0.0
2018-Jan-11 13:00N 57°42' E 010°38'0 0.0
2018-Jan-11 12:30N 57°42' E 010°38'0 0.0
2018-Jan-11 12:00N 57°42' E 010°38'0 0.3
2018-Jan-11 11:30N 57°42' E 010°38'0 1.0
2018-Jan-11 11:00N 57°42' E 010°39'4 8.4
2018-Jan-11 10:30N 57°41' E 010°47'612.2
2018-Jan-11 10:00N 57°40' E 010°58'612.7
2018-Jan-11 09:30N 57°37' E 011°08'713.5
2018-Jan-11 09:00N 57°32' E 011°17'713.5
2018-Jan-11 08:30N 57°27' E 011°26'713.7
2018-Jan-11 08:00N 57°21' E 011°30'714.0
2018-Jan-11 07:31N 57°14' E 011°34'714.1
2018-Jan-11 07:00N 57°08' E 011°39'713.6
2018-Jan-11 06:30N 57°01' E 011°43'2211.9
2018-Jan-11 04:37N 56°39' E 011°47'8511.8
2018-Jan-10 21:25N 55°17' E 011°04'512.6
2018-Jan-10 21:00N 55°12' E 011°06'612.1
2018-Jan-10 20:31N 55°08' E 010°59'612.9
2018-Jan-10 20:01N 55°01' E 010°59'612.8
2018-Jan-10 19:30N 54°56' E 010°53'714.3
2018-Jan-10 19:00N 54°49' E 010°50'713.7
2018-Jan-10 18:30N 54°42' E 010°47'613.0
2018-Jan-10 18:01N 54°38' E 010°55'713.6
2018-Jan-10 17:30N 54°36' E 011°06'713.5
2018-Jan-10 17:00N 54°35' E 011°17'713.6
2018-Jan-10 16:30N 54°31' E 011°28'713.3
2018-Jan-10 16:00N 54°28' E 011°38'612.8
2018-Jan-10 15:30N 54°26' E 011°49'713.0
2018-Jan-10 15:00N 54°26' E 011°60'612.6
2018-Jan-10 14:30N 54°27' E 012°11'612.9
2018-Jan-10 14:00N 54°33' E 012°14'612.3
2018-Jan-10 13:30N 54°38' E 012°21'  
Track history (hours):
 
Tides and Currents Weather Stations Pressure Air Temp Water Temp Dewpoint Dewpoint Depression Visibility Wind Speed Wind Dir Waves Ship Positions

MV Akson Sara

Last reported at 2018-Jan-11 20:16 UTC. Time now 2018-Jan-19 03:37 UTC.
Position N 57°38' E 009°14'.

Length 190 m; draft 10.5 m.

Type: Cargo ship. MMSI: 356182000.

Date/timePositionNaut miles runAvg speedWind from/ knotsBaromVisibWave heightAir tempDewpointWater temp
2018-Jan-11 20:16N 57°38' E 009°14'312.2
2018-Jan-11 20:00N 57°39' E 009°19'1012.6
2018-Jan-11 19:12N 57°42' E 009°37'2113.1
2018-Jan-11 17:36N 57°46' E 010°16'213.8
2018-Jan-11 17:28N 57°46' E 010°19'613.7
2018-Jan-11 17:00N 57°48' E 010°31'613.1
2018-Jan-11 16:30N 57°48' E 010°43'5 9.4
2018-Jan-11 16:00N 57°43' E 010°43'3 5.3
2018-Jan-11 15:30N 57°42' E 010°38'0 0.1
2018-Jan-11 15:00N 57°42' E 010°38'0 0.0
2018-Jan-11 14:27N 57°42' E 010°38'0 0.0
2018-Jan-11 13:54N 57°42' E 010°38'0 0.0
2018-Jan-11 13:27N 57°42' E 010°38'0 0.0
2018-Jan-11 13:00N 57°42' E 010°38'0 0.0
2018-Jan-11 12:30N 57°42' E 010°38'0 0.0
2018-Jan-11 12:00N 57°42' E 010°38'0 0.3
2018-Jan-11 11:30N 57°42' E 010°38'0 1.0
2018-Jan-11 11:00N 57°42' E 010°39'4 8.4
2018-Jan-11 10:30N 57°41' E 010°47'612.2
2018-Jan-11 10:00N 57°40' E 010°58'612.7
2018-Jan-11 09:30N 57°37' E 011°08'713.5
2018-Jan-11 09:00N 57°32' E 011°17'713.5
2018-Jan-11 08:30N 57°27' E 011°26'713.7
2018-Jan-11 08:00N 57°21' E 011°30'714.0
2018-Jan-11 07:31N 57°14' E 011°34'714.1
2018-Jan-11 07:00N 57°08' E 011°39'713.6
2018-Jan-11 06:30N 57°01' E 011°43'2211.9
2018-Jan-11 04:37N 56°39' E 011°47'8511.8
2018-Jan-10 21:25N 55°17' E 011°04'512.6
2018-Jan-10 21:00N 55°12' E 011°06'612.1
2018-Jan-10 20:31N 55°08' E 010°59'612.9
2018-Jan-10 20:01N 55°01' E 010°59'612.8
2018-Jan-10 19:30N 54°56' E 010°53'714.3
2018-Jan-10 19:00N 54°49' E 010°50'713.7
2018-Jan-10 18:30N 54°42' E 010°47'613.0
2018-Jan-10 18:01N 54°38' E 010°55'713.6
2018-Jan-10 17:30N 54°36' E 011°06'713.5
2018-Jan-10 17:00N 54°35' E 011°17'713.6
2018-Jan-10 16:30N 54°31' E 011°28'713.3
2018-Jan-10 16:00N 54°28' E 011°38'612.8
2018-Jan-10 15:30N 54°26' E 011°49'713.0
2018-Jan-10 15:00N 54°26' E 011°60'612.6
2018-Jan-10 14:30N 54°27' E 012°11'612.9
2018-Jan-10 14:00N 54°33' E 012°14'612.3
2018-Jan-10 13:30N 54°38' E 012°21'  

Dump ship's entire track history